Time;durP1;ratioP1;P1;durP2;ratioP2;P2;SDS_P1;SDS_P2;PMS_P1;PMS_P2;Temp;Humidity;BMP_temperature;BMP_pressure;BME280_temperature;BME280_humidity;BME280_pressure;Samples;Min_cycle;Max_cycle;Signal;HPM_P1;HPM_P2
2022/04/30 00:02:25;;;;;;;19.20;14.30;;;;;;;10.04;60.81;101269.38;104364;1293;22835;-75
2022/04/30 00:04:51;;;;;;;20.30;14.00;;;;;;;9.99;60.95;101272.36;104140;1294;24291;-78
2022/04/30 00:07:20;;;;;;;18.60;14.30;;;;;;;9.95;61.07;101269.51;104122;1293;25303;-76
2022/04/30 00:09:47;;;;;;;18.60;13.60;;;;;;;9.90;61.21;101268.06;105255;1293;23995;-76
2022/04/30 00:12:16;;;;;;;18.80;13.80;;;;;;;9.89;61.31;101267.70;105334;1293;22579;-76
2022/04/30 00:14:44;;;;;;;20.00;13.30;;;;;;;9.88;61.35;101265.94;104644;1293;24377;-76
2022/04/30 00:17:15;;;;;;;21.20;14.30;;;;;;;9.88;61.40;101266.29;106064;1293;23951;-75
2022/04/30 00:19:42;;;;;;;22.10;13.40;;;;;;;9.85;61.36;101267.14;105752;1293;24257;-77
2022/04/30 00:22:09;;;;;;;20.90;13.60;;;;;;;9.79;61.45;101265.51;104356;1293;25401;-78
2022/04/30 00:24:36;;;;;;;22.40;13.90;;;;;;;9.74;61.55;101265.11;104218;1293;22563;-74
2022/04/30 00:27:02;;;;;;;20.30;14.00;;;;;;;9.74;61.86;101267.23;104334;1293;25425;-78
2022/04/30 00:29:29;;;;;;;21.80;14.20;;;;;;;9.80;61.81;101267.80;104137;1296;25426;-78
2022/04/30 00:31:56;;;;;;;19.20;13.90;;;;;;;9.80;61.84;101269.73;104107;1293;24348;-77
2022/04/30 00:34:23;;;;;;;23.40;14.70;;;;;;;9.78;61.75;101268.49;104156;1293;25405;-79
2022/04/30 00:36:49;;;;;;;21.30;14.10;;;;;;;9.72;61.83;101272.65;104163;1293;25617;-78
2022/04/30 00:39:15;;;;;;;26.80;13.80;;;;;;;9.66;61.97;101269.63;104213;1293;26593;-78
2022/04/30 00:41:46;;;;;;;20.90;14.50;;;;;;;9.60;62.14;101267.45;103951;1296;25296;-78
2022/04/30 00:44:18;;;;;;;23.10;14.80;;;;;;;9.56;62.18;101270.77;104143;1293;24291;-76
2022/04/30 00:46:45;;;;;;;22.30;13.90;;;;;;;9.55;62.37;101270.05;104035;1293;25290;-74
2022/04/30 00:49:12;;;;;;;17.10;14.10;;;;;;;9.56;62.43;101272.17;104120;1293;22659;-74
2022/04/30 00:51:39;;;;;;;21.30;13.80;;;;;;;9.52;62.36;101261.93;104123;1296;24809;-75
2022/04/30 00:54:07;;;;;;;21.30;14.70;;;;;;;9.52;62.53;101271.61;103864;1293;22737;-75
2022/04/30 00:56:38;;;;;;;20.70;14.90;;;;;;;9.48;62.47;101268.23;103955;1293;22592;-75
2022/04/30 00:59:06;;;;;;;18.70;14.90;;;;;;;9.43;62.50;101269.41;103879;1294;25387;-75
2022/04/30 01:01:34;;;;;;;19.40;14.80;;;;;;;9.40;62.73;101268.52;103731;1293;24144;-73
2022/04/30 01:04:14;;;;;;;20.30;14.70;;;;;;;9.37;62.66;101270.06;103863;1293;22743;-76
2022/04/30 01:06:56;;;;;;;21.60;15.70;;;;;;;9.31;62.66;101268.59;103945;1294;25405;-73
2022/04/30 01:09:22;;;;;;;23.60;18.00;;;;;;;9.25;62.91;101269.40;103803;1294;23993;-75
2022/04/30 01:11:52;;;;;;;29.60;19.10;;;;;;;9.19;62.71;101267.40;104180;1293;22885;-79
2022/04/30 01:14:18;;;;;;;27.70;17.30;;;;;;;9.13;62.69;101266.83;104211;1293;22682;-78
2022/04/30 01:16:46;;;;;;;26.20;18.10;;;;;;;9.09;62.83;101260.80;104245;1293;23094;-77
2022/04/30 01:19:19;;;;;;;27.80;17.10;;;;;;;9.13;62.87;101262.95;104235;1293;22617;-76
2022/04/30 01:21:49;;;;;;;24.30;15.30;;;;;;;9.13;63.00;101262.06;104065;1293;23482;-74
2022/04/30 01:24:20;;;;;;;25.30;17.30;;;;;;;9.17;63.00;101258.24;104307;1293;25420;-76
2022/04/30 01:26:47;;;;;;;25.20;17.10;;;;;;;9.19;63.03;101260.21;104262;1293;24252;-76
2022/04/30 01:29:17;;;;;;;24.80;18.50;;;;;;;9.17;62.89;101258.61;103951;1293;22586;-76
2022/04/30 01:37:26;;;;;;;24.90;18.80;;;;;;;9.07;62.94;101263.23;104295;1293;22694;-73
2022/04/30 01:39:56;;;;;;;24.50;18.40;;;;;;;9.03;63.04;101259.86;104181;1293;23025;-76
2022/04/30 01:42:23;;;;;;;25.90;17.60;;;;;;;9.08;63.05;101266.94;104331;1293;22902;-74
2022/04/30 01:44:51;;;;;;;29.60;18.80;;;;;;;9.07;63.07;101264.30;103704;1296;22697;-75
2022/04/30 01:47:18;;;;;;;27.10;18.20;;;;;;;9.07;63.02;101267.45;103905;1293;22759;-75
2022/04/30 01:49:44;;;;;;;29.50;21.50;;;;;;;9.02;62.80;101263.02;103793;1293;25403;-74
2022/04/30 01:52:13;;;;;;;30.90;22.30;;;;;;;8.88;62.70;101260.40;103870;1293;22626;-75
2022/04/30 01:54:39;;;;;;;34.50;20.60;;;;;;;8.80;62.80;101263.98;103793;1296;22569;-74
2022/04/30 01:57:06;;;;;;;34.20;21.80;;;;;;;8.76;63.03;101263.41;103993;1293;25390;-78
2022/04/30 01:59:32;;;;;;;29.40;20.70;;;;;;;8.73;63.26;101264.59;103891;1294;22792;-78
2022/04/30 02:01:59;;;;;;;34.60;21.90;;;;;;;8.70;63.31;101264.38;104060;1293;22591;-76
2022/04/30 02:04:27;;;;;;;33.70;21.30;;;;;;;8.65;63.44;101265.91;104044;1293;25346;-77
2022/04/30 02:06:55;;;;;;;31.50;21.30;;;;;;;8.62;63.48;101265.52;104121;1293;23171;-76
2022/04/30 02:09:22;;;;;;;30.30;22.30;;;;;;;8.62;63.63;101267.61;103972;1293;22748;-74
2022/04/30 02:11:49;;;;;;;32.80;22.70;;;;;;;8.59;63.55;101266.01;103854;1293;22607;-76
2022/04/30 02:14:17;;;;;;;30.20;20.80;;;;;;;8.56;63.60;101260.88;104150;1293;24297;-80
2022/04/30 02:16:45;;;;;;;31.00;22.50;;;;;;;8.54;63.60;101263.83;104073;1293;23959;-81
2022/04/30 02:19:12;;;;;;;33.30;23.80;;;;;;;8.53;63.71;101262.39;103494;1300;25442;-80
2022/04/30 02:21:38;;;;;;;29.20;22.00;;;;;;;8.50;63.74;101260.93;103598;1297;22635;-80
2022/04/30 02:24:07;;;;;;;29.10;21.20;;;;;;;8.47;63.94;101257.73;103745;1296;24294;-82
2022/04/30 02:26:34;;;;;;;35.80;22.30;;;;;;;8.47;64.12;101251.23;103647;1299;24370;-76
2022/04/30 02:29:01;;;;;;;31.20;22.70;;;;;;;8.49;63.93;101249.70;103790;1300;22862;-76
2022/04/30 02:31:27;;;;;;;33.20;22.30;;;;;;;8.46;64.08;101249.11;103499;1299;25404;-74
2022/04/30 02:33:55;;;;;;;31.60;23.10;;;;;;;8.47;64.32;101245.27;103517;1300;22618;-79
2022/04/30 02:36:26;;;;;;;32.30;23.50;;;;;;;8.48;64.18;101244.76;103643;1299;25582;-82
2022/04/30 02:38:54;;;;;;;31.70;23.20;;;;;;;8.49;64.17;101242.13;103914;1297;22592;-82
2022/04/30 02:41:24;;;;;;;30.50;23.20;;;;;;;8.48;64.14;101246.14;104112;1295;22592;-80
2022/04/30 02:43:51;;;;;;;32.70;23.00;;;;;;;8.45;64.11;101245.42;104154;1294;22671;-75
2022/04/30 02:46:20;;;;;;;34.00;24.10;;;;;;;8.40;64.17;101244.13;104197;1293;22570;-83
2022/04/30 02:48:47;;;;;;;34.70;22.80;;;;;;;8.31;64.15;101243.30;104093;1293;25420;-81
2022/04/30 02:51:17;;;;;;;31.90;23.80;;;;;;;8.22;64.37;101242.65;104437;1294;22625;-82
2022/04/30 02:53:44;;;;;;;31.30;24.40;;;;;;;8.18;64.65;101240.84;104661;1294;25289;-84
2022/04/30 02:56:11;;;;;;;31.80;22.60;;;;;;;8.20;64.72;101241.05;104448;1296;24293;-83
2022/04/30 03:01:23;;;;;;;32.50;23.90;;;;;;;8.32;64.72;101244.89;104444;1293;25293;-84
2022/04/30 03:04:10;;;;;;;42.80;24.60;;;;;;;8.35;64.59;101238.63;104292;1293;23316;-76
2022/04/30 03:06:36;;;;;;;30.70;23.70;;;;;;;8.33;64.56;101238.24;104131;1297;25347;-78
2022/04/30 03:09:04;;;;;;;33.90;24.30;;;;;;;8.25;64.33;101237.95;104242;1293;22745;-80
2022/04/30 03:11:31;;;;;;;34.00;24.40;;;;;;;8.14;64.40;101235.70;104096;1294;24130;-76
2022/04/30 03:13:58;;;;;;;31.70;24.10;;;;;;;8.11;64.60;101238.11;104446;1293;24291;-74
2022/04/30 03:21:54;;;;;;;35.40;24.80;;;;;;;7.98;64.96;101241.60;104838;1294;22586;-77
2022/04/30 03:24:20;;;;;;;36.30;26.00;;;;;;;8.00;65.05;101241.97;104643;1293;22610;-74
2022/04/30 03:26:49;;;;;;;38.60;27.30;;;;;;;8.01;64.91;101239.19;105892;1294;22744;-72
2022/04/30 03:29:18;;;;;;;32.90;24.80;;;;;;;7.96;64.96;101237.35;105514;1293;22566;-76
2022/04/30 03:31:45;;;;;;;37.70;26.70;;;;;;;7.93;65.10;101239.77;104405;1293;25290;-76
2022/04/30 03:34:13;;;;;;;37.40;26.30;;;;;;;7.90;65.09;101241.66;104271;1293;22570;-80
2022/04/30 03:36:40;;;;;;;41.90;26.10;;;;;;;7.92;64.98;101239.41;103931;1294;22606;-76
2022/04/30 03:39:07;;;;;;;35.80;26.70;;;;;;;7.89;64.93;101238.30;104267;1294;22754;-73
2022/04/30 03:41:33;;;;;;;37.70;26.80;;;;;;;7.85;64.93;101238.74;104137;1294;22578;-75
2022/04/30 03:44:00;;;;;;;32.00;24.40;;;;;;;7.78;64.95;101240.23;104274;1294;22609;-80
2022/04/30 03:46:27;;;;;;;34.10;25.70;;;;;;;7.73;65.07;101241.20;104239;1294;24325;-78
2022/04/30 03:48:56;;;;;;;32.00;24.30;;;;;;;7.76;65.32;101240.73;103989;1296;24394;-77
2022/04/30 03:51:23;;;;;;;36.10;24.40;;;;;;;7.76;65.03;101247.23;104219;1293;24143;-76
2022/04/30 03:53:50;;;;;;;32.50;24.50;;;;;;;7.74;65.06;101249.98;104264;1293;23996;-79
2022/04/30 03:56:17;;;;;;;31.10;24.30;;;;;;;7.78;65.11;101249.54;104285;1294;22878;-82
2022/04/30 03:58:46;;;;;;;30.40;24.20;;;;;;;7.85;64.98;101250.85;104181;1297;25730;-80
2022/04/30 04:01:13;;;;;;;31.40;24.80;;;;;;;7.85;64.81;101249.81;104423;1293;23304;-78
2022/04/30 04:03:42;;;;;;;34.90;25.40;;;;;;;7.78;64.65;101249.89;104280;1293;22588;-77
2022/04/30 04:06:08;;;;;;;37.60;24.90;;;;;;;7.72;64.76;101250.85;103930;1297;22616;-79
2022/04/30 04:08:35;;;;;;;32.90;24.10;;;;;;;7.71;64.86;101248.72;103995;1294;22594;-78
2022/04/30 04:11:03;;;;;;;33.00;24.90;;;;;;;7.70;64.79;101248.54;103906;1294;22684;-78
2022/04/30 04:18:58;;;;;;;31.50;23.40;;;;;;;7.76;64.90;101251.44;104233;1293;24314;-79
2022/04/30 04:21:25;;;;;;;29.10;20.50;;;;;;;7.78;64.75;101250.93;104275;1294;22612;-77
2022/04/30 04:26:35;;;;;;;33.40;23.00;;;;;;;7.87;64.88;101253.35;104366;1293;25286;-81
2022/04/30 04:29:02;;;;;;;32.30;23.90;;;;;;;7.89;64.90;101252.52;104115;1294;25363;-76
2022/04/30 04:31:29;;;;;;;33.10;24.40;;;;;;;7.96;64.98;101253.13;104498;1293;22577;-76
2022/04/30 04:33:55;;;;;;;31.10;24.20;;;;;;;8.00;64.88;101253.20;103878;1297;25767;-75
2022/04/30 04:36:21;;;;;;;32.50;24.10;;;;;;;8.02;64.81;101258.52;103948;1297;22595;-76
2022/04/30 04:38:47;;;;;;;30.40;23.60;;;;;;;8.01;64.99;101255.66;104246;1294;25460;-81
2022/04/30 04:41:13;;;;;;;32.90;25.30;;;;;;;8.03;65.05;101253.42;104397;1294;23307;-77
2022/04/30 04:43:40;;;;;;;34.40;24.00;;;;;;;8.04;65.21;101252.39;104368;1294;22567;-77
2022/04/30 04:46:06;;;;;;;33.30;25.20;;;;;;;8.07;65.31;101256.45;104303;1294;22598;-77
2022/04/30 04:48:33;;;;;;;31.60;24.00;;;;;;;8.07;65.51;101256.11;104194;1294;24723;-73
2022/04/30 04:51:00;;;;;;;31.70;23.20;;;;;;;8.09;65.46;101258.60;104245;1293;22592;-78
2022/04/30 04:53:26;;;;;;;27.40;21.60;;;;;;;8.08;65.36;101257.70;103993;1293;22630;-79
2022/04/30 04:55:54;;;;;;;30.90;21.70;;;;;;;8.10;65.42;101259.67;103878;1298;25287;-79
2022/04/30 04:58:20;;;;;;;27.50;19.50;;;;;;;8.13;65.01;101258.66;104228;1298;22585;-75
2022/04/30 05:00:46;;;;;;;24.40;19.50;;;;;;;8.13;64.42;101257.95;104306;1294;25302;-76
2022/04/30 05:03:13;;;;;;;26.60;19.80;;;;;;;8.11;64.03;101257.05;104316;1294;24394;-74
2022/04/30 05:05:39;;;;;;;25.40;19.60;;;;;;;8.10;63.93;101257.73;104182;1297;24256;-76
2022/04/30 05:08:05;;;;;;;29.60;19.70;;;;;;;8.16;63.95;101260.81;104003;1294;308928;-81
2022/04/30 05:10:31;;;;;;;25.10;18.80;;;;;;;8.22;63.65;101259.84;104178;1293;24314;-74
2022/04/30 05:12:58;;;;;;;26.50;18.90;;;;;;;8.26;63.48;101260.26;104063;1297;22601;-78
2022/04/30 05:15:24;;;;;;;25.00;19.50;;;;;;;8.32;63.46;101261.40;104336;1294;22594;-81
2022/04/30 05:17:50;;;;;;;28.40;20.20;;;;;;;8.37;63.36;101258.66;104371;1293;24281;-80
2022/04/30 05:20:16;;;;;;;25.60;20.80;;;;;;;8.38;63.02;101251.30;104334;1293;24715;-80
2022/04/30 05:23:02;;;;;;;29.70;21.40;;;;;;;8.44;62.89;101256.30;104226;1294;22605;-78
2022/04/30 05:25:29;;;;;;;31.50;21.00;;;;;;;8.50;62.94;101256.38;104115;1293;24291;-77
2022/04/30 05:27:56;;;;;;;30.30;20.60;;;;;;;8.52;62.70;101251.15;105460;1297;22716;-89
2022/04/30 05:30:24;;;;;;;33.10;21.00;;;;;;;8.57;62.62;101252.64;105185;1297;22681;-89
2022/04/30 05:32:50;;;;;;;28.70;20.80;;;;;;;8.63;62.65;101251.13;105237;1297;22576;-90
2022/04/30 05:35:17;;;;;;;28.00;20.10;;;;;;;8.71;62.44;101254.38;105410;1297;22658;-88
2022/04/30 05:37:44;;;;;;;37.00;21.50;;;;;;;8.77;62.12;101250.27;105515;1297;22601;-86
2022/04/30 05:40:10;;;;;;;29.70;20.10;;;;;;;8.79;61.91;101252.91;106098;1296;22615;-82
2022/04/30 05:42:36;;;;;;;30.30;20.10;;;;;;;8.81;61.73;101256.45;106847;1286;22636;-90
2022/04/30 05:45:03;;;;;;;31.10;19.80;;;;;;;8.85;61.68;101255.09;105635;1294;22606;-90
2022/04/30 05:47:29;;;;;;;26.60;19.30;;;;;;;8.91;61.43;101258.83;106049;1293;24584;-90
2022/04/30 05:49:57;;;;;;;25.90;18.70;;;;;;;8.97;61.33;101260.84;105934;1296;22650;-87
2022/04/30 05:52:23;;;;;;;28.60;19.00;;;;;;;9.00;61.20;101264.75;106208;1296;24031;-89
2022/04/30 05:54:49;;;;;;;25.80;18.20;;;;;;;9.05;61.02;101263.21;106695;1296;22789;-91
2022/04/30 05:57:17;;;;;;;25.60;18.10;;;;;;;9.12;60.81;101268.39;106837;1296;23049;-91
2022/04/30 05:59:45;;;;;;;20.10;16.00;;;;;;;9.15;60.50;101270.35;107081;1298;22770;-89
2022/04/30 06:02:11;;;;;;;24.60;18.80;;;;;;;9.15;60.31;101267.72;107308;1298;22910;-90
2022/04/30 06:04:39;;;;;;;28.70;19.10;;;;;;;9.22;60.37;101268.66;107286;1299;22586;-90
2022/04/30 06:07:06;;;;;;;26.90;17.90;;;;;;;9.29;60.26;101269.98;107244;1299;22629;-90
2022/04/30 06:09:32;;;;;;;30.70;17.80;;;;;;;9.41;60.20;101270.80;106335;1298;22719;-90
2022/04/30 06:11:59;;;;;;;27.40;17.70;;;;;;;9.50;60.12;101267.90;105623;1299;24215;-90
2022/04/30 06:14:25;;;;;;;23.60;17.70;;;;;;;9.58;60.08;101266.90;105622;1302;22595;-92
2022/04/30 06:16:52;;;;;;;25.90;18.80;;;;;;;9.65;59.94;101268.91;105137;1302;25896;-91
2022/04/30 06:19:18;;;;;;;23.60;17.40;;;;;;;9.75;59.88;101267.94;105345;1299;22670;-89
2022/04/30 06:21:45;;;;;;;22.80;16.90;;;;;;;9.84;59.60;101265.38;105393;1298;22589;-91
2022/04/30 06:24:12;;;;;;;26.30;17.00;;;;;;;9.87;59.34;101258.89;105708;1299;25680;-79
2022/04/30 06:26:38;;;;;;;22.50;18.30;;;;;;;9.97;59.31;101265.65;105602;1299;22703;-79
2022/04/30 06:29:04;;;;;;;22.00;16.60;;;;;;;10.03;59.04;101267.27;106503;1299;22579;-84
2022/04/30 06:31:30;;;;;;;21.70;17.50;;;;;;;10.08;59.03;101259.04;106846;1299;22532;-84
2022/04/30 06:33:57;;;;;;;23.80;16.90;;;;;;;10.21;58.80;101267.73;107209;1296;22137;-82
2022/04/30 06:36:23;;;;;;;24.90;16.60;;;;;;;10.30;58.68;101266.04;107306;1296;22591;-83
2022/04/30 06:38:49;;;;;;;23.10;17.30;;;;;;;10.39;58.60;101269.61;107518;1295;22712;-83
2022/04/30 06:41:16;;;;;;;23.50;17.30;;;;;;;10.49;58.48;101265.66;107236;1295;22963;-82
2022/04/30 06:43:42;;;;;;;20.70;16.00;;;;;;;10.58;58.10;101269.40;107012;1295;22938;-82
2022/04/30 06:46:09;;;;;;;22.30;15.80;;;;;;;10.66;57.76;101271.55;105292;1296;26564;-81
2022/04/30 06:48:36;;;;;;;23.40;16.40;;;;;;;10.72;57.50;101273.16;104886;1296;23092;-83
2022/04/30 06:51:02;;;;;;;22.30;15.60;;;;;;;10.79;57.44;101273.55;104480;1295;25414;-77
2022/04/30 06:59:23;;;;;;;23.40;14.90;;;;;;;11.05;56.93;101270.11;104226;1293;24321;-81
2022/04/30 07:02:03;;;;;;;19.70;14.10;;;;;;;11.12;56.85;101271.02;104319;1293;25293;-83
2022/04/30 07:04:30;;;;;;;22.50;15.70;;;;;;;11.19;56.31;101265.21;104044;1296;23956;-81
2022/04/30 07:06:57;;;;;;;17.60;13.30;;;;;;;11.28;56.08;101269.29;104091;1296;22597;-80
2022/04/30 07:17:12;;;;;;;15.60;11.50;;;;;;;11.64;53.95;101263.87;103913;1296;25300;-83
2022/04/30 07:23:22;;;;;;;11.40;9.10;;;;;;;11.85;53.33;101258.05;104091;1296;25460;-81
2022/04/30 07:30:05;;;;;;;17.20;10.50;;;;;;;12.14;52.27;101255.39;104035;1296;22826;-82
2022/04/30 07:32:40;;;;;;;15.90;10.90;;;;;;;12.24;52.27;101257.14;104035;1296;22584;-82
2022/04/30 07:35:08;;;;;;;18.00;9.70;;;;;;;12.32;51.80;101253.23;104007;1296;23683;-83
2022/04/30 07:37:34;;;;;;;13.30;9.50;;;;;;;12.45;51.31;101252.16;104141;1296;24299;-80
2022/04/30 07:40:01;;;;;;;14.80;9.60;;;;;;;12.55;50.70;101253.34;104103;1296;22588;-84
2022/04/30 07:42:27;;;;;;;10.00;7.20;;;;;;;12.67;49.73;101254.20;104338;1296;25281;-81
2022/04/30 07:44:59;;;;;;;10.30;6.80;;;;;;;12.76;48.69;101244.61;103866;1296;25488;-82
2022/04/30 07:47:29;;;;;;;11.10;6.70;;;;;;;12.87;48.14;101245.45;103874;1297;22611;-79
2022/04/30 07:49:55;;;;;;;11.70;6.30;;;;;;;12.98;47.59;101238.14;104085;1296;24384;-83
2022/04/30 07:52:23;;;;;;;9.80;6.30;;;;;;;13.06;47.12;101233.67;103925;1299;24365;-86
2022/04/30 07:55:20;;;;;;;7.90;4.30;;;;;;;13.20;46.59;101237.48;103958;1299;22598;-80
2022/04/30 07:57:46;;;;;;;7.60;4.10;;;;;;;13.34;44.70;101231.90;104320;1300;22584;-79
2022/04/30 08:00:42;;;;;;;9.10;4.30;;;;;;;13.47;45.20;101227.74;104120;1299;24092;-86
2022/04/30 08:03:08;;;;;;;7.70;4.70;;;;;;;13.66;45.37;101234.00;103768;1299;24426;-80
2022/04/30 08:05:35;;;;;;;10.90;5.30;;;;;;;13.82;44.51;101232.08;103927;1299;24603;-80
2022/04/30 08:08:01;;;;;;;9.40;5.00;;;;;;;13.96;44.72;101233.02;103801;1299;26633;-83
2022/04/30 08:10:27;;;;;;;6.60;4.10;;;;;;;14.12;44.87;101232.14;103767;1296;22582;-79
2022/04/30 08:12:56;;;;;;;9.00;3.50;;;;;;;14.29;44.56;101229.13;104230;1296;24180;-83
2022/04/30 08:15:23;;;;;;;7.60;3.50;;;;;;;14.45;43.22;101228.95;104597;1296;22768;-77
2022/04/30 08:17:52;;;;;;;5.20;2.80;;;;;;;14.58;42.41;101224.70;104346;1296;22611;-78
2022/04/30 08:20:18;;;;;;;3.10;2.50;;;;;;;14.68;40.79;101226.89;104327;1296;22765;-79
2022/04/30 08:22:44;;;;;;;5.20;2.40;;;;;;;14.78;40.40;101227.85;104221;1296;24241;-80
2022/04/30 08:25:11;;;;;;;2.50;1.70;;;;;;;14.88;39.69;101226.66;104187;1293;23591;-82
2022/04/30 08:27:38;;;;;;;5.20;2.00;;;;;;;14.99;39.15;101222.78;104177;1296;22729;-79
2022/04/30 08:30:05;;;;;;;3.50;1.90;;;;;;;15.10;38.57;101219.45;104160;1296;22706;-81
2022/04/30 08:32:31;;;;;;;5.70;2.20;;;;;;;15.18;37.90;101218.79;104240;1296;22866;-82
2022/04/30 08:35:01;;;;;;;4.20;2.70;;;;;;;15.31;38.34;101221.61;104304;1296;22658;-81
2022/04/30 08:37:29;;;;;;;3.10;2.40;;;;;;;15.44;38.32;101222.11;104107;1296;22886;-85
2022/04/30 08:39:55;;;;;;;4.70;2.80;;;;;;;15.58;38.54;101220.65;104076;1296;22564;-80
2022/04/30 08:42:23;;;;;;;5.10;2.40;;;;;;;15.73;38.20;101221.64;104141;1296;22599;-82
2022/04/30 08:44:49;;;;;;;5.50;2.30;;;;;;;15.86;37.34;101222.14;104182;1296;22511;-81
2022/04/30 08:47:16;;;;;;;4.00;1.90;;;;;;;15.96;36.20;101222.67;104303;1296;26542;-81
2022/04/30 08:49:42;;;;;;;2.40;1.80;;;;;;;16.01;35.16;101217.44;104872;1296;24135;-80
2022/04/30 08:52:11;;;;;;;1.90;1.60;;;;;;;16.09;33.98;101215.34;104075;1295;22596;-82
2022/04/30 08:54:37;;;;;;;4.50;2.60;;;;;;;16.08;33.37;101208.61;104679;1296;22652;-79
2022/04/30 08:57:04;;;;;;;4.10;2.40;;;;;;;16.09;33.52;101206.98;104464;1296;25302;-79
2022/04/30 08:59:32;;;;;;;5.70;2.60;;;;;;;16.08;33.45;101204.16;104515;1296;22617;-79
2022/04/30 09:01:58;;;;;;;3.30;2.00;;;;;;;16.11;33.52;101199.85;104529;1296;23926;-78
2022/04/30 09:04:41;;;;;;;2.40;2.00;;;;;;;16.21;33.91;101196.46;105152;1296;22758;-79
2022/04/30 09:07:17;;;;;;;2.10;1.80;;;;;;;16.44;34.46;101199.02;105952;1296;22730;-79
2022/04/30 09:09:44;;;;;;;3.50;1.50;;;;;;;16.63;34.11;101198.98;105501;1296;22564;-79
2022/04/30 09:12:16;;;;;;;4.40;2.30;;;;;;;16.71;33.22;101192.93;104748;1296;22580;-80
2022/04/30 09:14:42;;;;;;;4.80;2.00;;;;;;;16.85;32.57;101196.19;104568;1296;22515;-82
2022/04/30 09:17:11;;;;;;;2.80;1.90;;;;;;;17.03;32.12;101192.59;104142;1296;25302;-81
2022/04/30 09:20:04;;;;;;;2.30;1.30;;;;;;;17.21;31.03;101190.60;104195;1296;22615;-83
2022/04/30 09:22:33;;;;;;;5.20;1.70;;;;;;;17.16;29.60;101186.79;104262;1296;22819;-84
2022/04/30 09:25:04;;;;;;;2.80;1.70;;;;;;;17.26;30.76;101180.13;104064;1296;22580;-82
2022/04/30 09:27:52;;;;;;;2.60;1.60;;;;;;;17.55;30.12;101184.95;104205;1295;23331;-81
2022/04/30 09:30:29;;;;;;;2.40;1.80;;;;;;;17.72;30.20;101187.91;104549;1296;25367;-80
2022/04/30 09:32:59;;;;;;;2.00;1.70;;;;;;;17.77;29.33;101184.22;104502;1296;22941;-80
2022/04/30 09:38:11;;;;;;;1.40;1.30;;;;;;;17.88;28.81;101185.69;105648;1296;22741;-79
2022/04/30 09:40:38;;;;;;;1.50;1.40;;;;;;;17.91;28.51;101182.41;105721;1296;24269;-81
2022/04/30 09:43:15;;;;;;;2.60;1.40;;;;;;;18.06;28.84;101184.33;105557;1296;22815;-78
2022/04/30 09:45:42;;;;;;;2.60;1.40;;;;;;;18.31;28.71;101183.99;106347;1298;22565;-80
2022/04/30 09:54:00;;;;;;;5.00;1.70;;;;;;;18.85;27.90;101168.51;104189;1299;24226;-79
2022/04/30 09:56:40;;;;;;;;;;;;;;;19.01;28.53;101173.53;103927;1299;25383;-81
2022/04/30 09:59:09;;;;;;;3.20;1.60;;;;;;;19.14;28.03;101172.41;103712;1299;25405;-82
2022/04/30 10:01:41;;;;;;;3.60;1.40;;;;;;;19.29;28.44;101168.92;103718;1299;23308;-81
2022/04/30 10:04:12;;;;;;;2.80;1.40;;;;;;;19.41;28.51;101159.76;103927;1296;24557;-82
2022/04/30 10:06:43;;;;;;;5.00;1.90;;;;;;;19.59;28.31;101162.36;103960;1296;23681;-81
2022/04/30 10:09:22;;;;;;;4.50;1.80;;;;;;;19.75;28.30;101155.93;104219;1296;22587;-85
2022/04/30 10:12:16;;;;;;;3.10;1.90;;;;;;;19.93;28.25;101156.36;103938;1296;22570;-83
2022/04/30 10:15:04;;;;;;;2.20;1.70;;;;;;;20.00;26.84;101154.33;104150;1296;24347;-82
2022/04/30 10:17:35;;;;;;;6.20;1.80;;;;;;;19.94;26.00;101162.56;103864;1297;25678;-82
2022/04/30 10:20:07;;;;;;;2.70;1.70;;;;;;;19.78;26.33;101152.95;103780;1297;25421;-79
2022/04/30 10:22:35;;;;;;;4.00;2.00;;;;;;;19.85;26.58;101152.70;104125;1294;25337;-81
2022/04/30 10:25:03;;;;;;;2.50;1.50;;;;;;;20.06;26.72;101147.67;103644;1296;24247;-84
2022/04/30 10:27:40;;;;;;;2.50;2.00;;;;;;;20.27;26.82;101146.39;104229;1294;25515;-82
2022/04/30 10:30:18;;;;;;;5.10;2.00;;;;;;;20.49;26.53;101143.95;103950;1296;22755;-83
2022/04/30 10:32:54;;;;;;;5.90;2.30;;;;;;;20.63;26.89;101140.73;104059;1296;24294;-81
2022/04/30 10:35:30;;;;;;;2.40;2.10;;;;;;;20.77;27.01;101136.94;104075;1294;25291;-83
2022/04/30 10:38:11;;;;;;;7.10;2.30;;;;;;;21.04;26.97;101138.04;104042;1296;24855;-81
2022/04/30 10:40:40;;;;;;;3.90;2.00;;;;;;;21.27;27.18;101139.09;103962;1296;24905;-84
2022/04/30 10:43:26;;;;;;;5.90;1.60;;;;;;;21.38;27.04;101135.02;104075;1296;25305;-82
2022/04/30 10:45:56;;;;;;;4.00;2.10;;;;;;;21.37;26.75;101128.44;104002;1296;24199;-82
2022/04/30 10:48:22;;;;;;;6.00;1.60;;;;;;;21.29;26.08;101130.95;104139;1294;22659;-83
2022/04/30 10:51:04;;;;;;;2.30;1.70;;;;;;;21.34;26.31;101127.34;104130;1296;25509;-82
2022/04/30 10:53:34;;;;;;;3.60;2.00;;;;;;;21.55;26.15;101127.30;104225;1296;25296;-81
2022/04/30 10:56:03;;;;;;;3.40;1.70;;;;;;;21.74;26.07;101126.14;104211;1295;25389;-82
2022/04/30 10:58:32;;;;;;;3.50;1.70;;;;;;;21.89;25.31;101121.05;104338;1293;22744;-81
2022/04/30 11:01:19;;;;;;;3.50;1.60;;;;;;;21.95;25.12;101119.68;104321;1293;25459;-81
2022/04/30 11:03:48;;;;;;;3.90;1.90;;;;;;;21.87;24.45;101120.23;104147;1293;23652;-84
2022/04/30 11:06:21;;;;;;;2.60;1.30;;;;;;;21.88;24.85;101118.55;104064;1296;24265;-79
2022/04/30 11:09:06;;;;;;;2.10;1.30;;;;;;;22.15;25.03;101115.17;104009;1293;24256;-82
2022/04/30 11:11:34;;;;;;;3.10;1.20;;;;;;;22.35;24.41;101116.04;104246;1294;25302;-82
2022/04/30 11:14:08;;;;;;;3.30;1.30;;;;;;;22.44;24.08;101106.69;104443;1293;24322;-81
2022/04/30 11:16:37;;;;;;;2.20;1.30;;;;;;;22.58;24.05;101109.78;104027;1293;25273;-81
2022/04/30 11:19:15;;;;;;;2.70;1.80;;;;;;;22.70;23.86;101108.32;104113;1296;25409;-82
2022/04/30 11:21:54;;;;;;;1.50;1.40;;;;;;;22.74;23.36;101107.08;104255;1296;22593;-83
2022/04/30 11:24:29;;;;;;;1.60;1.20;;;;;;;22.85;23.04;101102.94;104092;1296;24160;-78
2022/04/30 11:26:59;;;;;;;2.20;1.40;;;;;;;22.62;22.94;101101.70;104221;1296;25408;-73
2022/04/30 11:29:26;;;;;;;3.30;1.30;;;;;;;22.45;23.05;101099.81;104121;1296;25415;-77
2022/04/30 11:31:54;;;;;;;2.80;1.20;;;;;;;22.46;23.53;101097.58;104118;1293;24314;-80
2022/04/30 11:34:21;;;;;;;3.10;1.70;;;;;;;22.67;23.42;101097.70;103948;1294;27046;-80
2022/04/30 11:36:56;;;;;;;3.00;1.50;;;;;;;22.29;22.69;101095.90;104128;1293;25566;-80
2022/04/30 11:39:24;;;;;;;2.50;1.40;;;;;;;22.04;23.01;101101.52;103975;1294;25360;-79
2022/04/30 11:41:54;;;;;;;4.70;1.70;;;;;;;22.09;22.96;101092.87;104178;1296;25420;-82
2022/04/30 11:44:27;;;;;;;10.10;2.90;;;;;;;22.20;23.41;101082.30;104068;1296;22583;-83
2022/04/30 11:46:55;;;;;;;2.10;1.70;;;;;;;22.54;23.20;101074.80;104166;1296;25667;-81
2022/04/30 11:49:24;;;;;;;3.60;1.20;;;;;;;22.59;22.40;101073.69;103964;1296;22569;-80
2022/04/30 11:52:06;;;;;;;2.70;1.50;;;;;;;22.26;22.24;101071.79;103452;1300;22585;-79
2022/04/30 11:54:38;;;;;;;6.50;1.70;;;;;;;21.91;22.08;101068.73;103582;1299;22584;-82
2022/04/30 11:57:04;;;;;;;2.30;1.10;;;;;;;21.51;22.44;101070.70;103653;1299;24298;-77
2022/04/30 11:59:35;;;;;;;1.20;1.10;;;;;;;21.23;22.43;101072.27;103568;1299;22592;-82
2022/04/30 12:02:06;;;;;;;3.70;1.30;;;;;;;20.88;23.06;101070.30;103608;1299;22598;-81
2022/04/30 12:04:36;;;;;;;4.60;1.30;;;;;;;20.77;22.85;101065.90;103655;1299;25583;-80
2022/04/30 12:07:05;;;;;;;4.90;1.40;;;;;;;20.94;23.09;101069.33;103644;1299;24186;-81
2022/04/30 12:09:37;;;;;;;3.30;1.50;;;;;;;21.11;22.53;101063.07;103916;1296;24239;-81
2022/04/30 12:12:16;;;;;;;1.20;1.00;;;;;;;21.21;22.70;101057.28;104415;1296;25401;-81
2022/04/30 12:14:47;;;;;;;3.10;1.10;;;;;;;21.67;23.04;101055.48;104350;1296;24257;-82